sensor_id;sensor_type;location;lat;lon;timestamp;P1;durP1;ratioP1;P2;durP2;ratioP2
17953;SDS011;9102;53.548;9.926;2022-10-18T00:00:48;43.55;;;18.58;;
17953;SDS011;9102;53.548;9.926;2022-10-18T00:03:15;40.13;;;17.80;;
17953;SDS011;9102;53.548;9.926;2022-10-18T00:05:42;35.45;;;16.60;;
17953;SDS011;9102;53.548;9.926;2022-10-18T00:08:10;43.67;;;18.67;;
17953;SDS011;9102;53.548;9.926;2022-10-18T00:10:37;43.05;;;20.08;;
17953;SDS011;9102;53.548;9.926;2022-10-18T00:13:04;37.47;;;17.45;;
17953;SDS011;9102;53.548;9.926;2022-10-18T00:15:31;66.82;;;23.33;;
17953;SDS011;9102;53.548;9.926;2022-10-18T00:17:57;39.58;;;18.98;;
17953;SDS011;9102;53.548;9.926;2022-10-18T00:20:24;46.70;;;19.67;;
17953;SDS011;9102;53.548;9.926;2022-10-18T00:22:52;46.85;;;21.00;;
17953;SDS011;9102;53.548;9.926;2022-10-18T00:25:20;43.72;;;20.75;;
17953;SDS011;9102;53.548;9.926;2022-10-18T00:27:47;48.00;;;20.58;;
17953;SDS011;9102;53.548;9.926;2022-10-18T00:30:14;45.67;;;20.85;;
17953;SDS011;9102;53.548;9.926;2022-10-18T00:32:41;56.72;;;21.48;;
17953;SDS011;9102;53.548;9.926;2022-10-18T00:35:08;53.63;;;21.00;;
17953;SDS011;9102;53.548;9.926;2022-10-18T00:37:35;41.78;;;19.50;;
17953;SDS011;9102;53.548;9.926;2022-10-18T00:40:02;45.47;;;19.73;;
17953;SDS011;9102;53.548;9.926;2022-10-18T00:42:32;77.20;;;24.73;;
17953;SDS011;9102;53.548;9.926;2022-10-18T00:45:03;47.90;;;20.90;;
17953;SDS011;9102;53.548;9.926;2022-10-18T00:47:43;53.17;;;23.65;;
17953;SDS011;9102;53.548;9.926;2022-10-18T00:50:12;45.50;;;20.90;;
17953;SDS011;9102;53.548;9.926;2022-10-18T00:52:40;55.05;;;23.60;;
17953;SDS011;9102;53.548;9.926;2022-10-18T00:55:10;53.85;;;21.35;;
17953;SDS011;9102;53.548;9.926;2022-10-18T00:57:39;52.15;;;21.90;;
17953;SDS011;9102;53.548;9.926;2022-10-18T01:00:08;52.78;;;22.15;;
17953;SDS011;9102;53.548;9.926;2022-10-18T01:02:36;66.90;;;24.20;;
17953;SDS011;9102;53.548;9.926;2022-10-18T01:05:03;60.22;;;22.30;;
17953;SDS011;9102;53.548;9.926;2022-10-18T01:07:37;57.42;;;22.27;;
17953;SDS011;9102;53.548;9.926;2022-10-18T01:10:26;68.70;;;25.02;;
17953;SDS011;9102;53.548;9.926;2022-10-18T01:15:50;54.67;;;23.60;;
17953;SDS011;9102;53.548;9.926;2022-10-18T01:18:24;63.50;;;24.70;;
17953;SDS011;9102;53.548;9.926;2022-10-18T01:23:56;64.57;;;25.65;;
17953;SDS011;9102;53.548;9.926;2022-10-18T01:26:54;85.53;;;28.42;;
17953;SDS011;9102;53.548;9.926;2022-10-18T01:29:44;86.47;;;29.58;;
17953;SDS011;9102;53.548;9.926;2022-10-18T01:32:20;70.80;;;27.00;;
17953;SDS011;9102;53.548;9.926;2022-10-18T01:34:49;85.53;;;28.63;;
17953;SDS011;9102;53.548;9.926;2022-10-18T01:37:21;68.18;;;27.15;;
17953;SDS011;9102;53.548;9.926;2022-10-18T01:39:49;68.57;;;25.50;;
17953;SDS011;9102;53.548;9.926;2022-10-18T01:42:20;61.58;;;24.67;;
17953;SDS011;9102;53.548;9.926;2022-10-18T01:44:47;75.53;;;26.17;;
17953;SDS011;9102;53.548;9.926;2022-10-18T01:47:17;62.25;;;24.20;;
17953;SDS011;9102;53.548;9.926;2022-10-18T01:49:45;79.45;;;27.88;;
17953;SDS011;9102;53.548;9.926;2022-10-18T01:52:12;77.57;;;28.00;;
17953;SDS011;9102;53.548;9.926;2022-10-18T01:54:41;80.40;;;27.90;;
17953;SDS011;9102;53.548;9.926;2022-10-18T01:57:11;79.25;;;28.27;;
17953;SDS011;9102;53.548;9.926;2022-10-18T01:59:47;93.55;;;29.85;;
17953;SDS011;9102;53.548;9.926;2022-10-18T02:02:25;70.95;;;26.27;;
17953;SDS011;9102;53.548;9.926;2022-10-18T02:05:08;106.65;;;31.20;;
17953;SDS011;9102;53.548;9.926;2022-10-18T02:07:44;73.68;;;27.00;;
17953;SDS011;9102;53.548;9.926;2022-10-18T02:10:18;76.40;;;26.55;;
17953;SDS011;9102;53.548;9.926;2022-10-18T02:12:50;86.20;;;28.70;;
17953;SDS011;9102;53.548;9.926;2022-10-18T02:15:20;94.93;;;28.67;;
17953;SDS011;9102;53.548;9.926;2022-10-18T02:17:59;88.63;;;30.45;;
17953;SDS011;9102;53.548;9.926;2022-10-18T02:20:31;107.75;;;31.70;;
17953;SDS011;9102;53.548;9.926;2022-10-18T02:23:00;74.53;;;27.88;;
17953;SDS011;9102;53.548;9.926;2022-10-18T02:25:31;88.25;;;29.10;;
17953;SDS011;9102;53.548;9.926;2022-10-18T02:28:00;73.13;;;27.15;;
17953;SDS011;9102;53.548;9.926;2022-10-18T02:30:28;72.57;;;28.02;;
17953;SDS011;9102;53.548;9.926;2022-10-18T02:33:02;82.05;;;27.95;;
17953;SDS011;9102;53.548;9.926;2022-10-18T02:35:36;72.65;;;27.10;;
17953;SDS011;9102;53.548;9.926;2022-10-18T02:38:07;68.40;;;25.75;;
17953;SDS011;9102;53.548;9.926;2022-10-18T02:40:37;85.82;;;31.40;;
17953;SDS011;9102;53.548;9.926;2022-10-18T02:43:04;77.75;;;29.80;;
17953;SDS011;9102;53.548;9.926;2022-10-18T02:45:32;77.78;;;28.02;;
17953;SDS011;9102;53.548;9.926;2022-10-18T02:47:59;106.95;;;31.70;;
17953;SDS011;9102;53.548;9.926;2022-10-18T02:50:26;97.45;;;32.20;;
17953;SDS011;9102;53.548;9.926;2022-10-18T02:52:54;79.60;;;29.13;;
17953;SDS011;9102;53.548;9.926;2022-10-18T02:55:21;82.78;;;28.92;;
17953;SDS011;9102;53.548;9.926;2022-10-18T02:57:47;81.20;;;29.70;;
17953;SDS011;9102;53.548;9.926;2022-10-18T03:00:14;130.38;;;34.67;;
17953;SDS011;9102;53.548;9.926;2022-10-18T03:02:41;98.47;;;32.17;;
17953;SDS011;9102;53.548;9.926;2022-10-18T03:05:08;88.80;;;30.20;;
17953;SDS011;9102;53.548;9.926;2022-10-18T03:07:35;97.45;;;31.23;;
17953;SDS011;9102;53.548;9.926;2022-10-18T03:10:03;70.45;;;28.38;;
17953;SDS011;9102;53.548;9.926;2022-10-18T03:12:31;109.85;;;33.50;;
17953;SDS011;9102;53.548;9.926;2022-10-18T03:14:58;66.90;;;28.10;;
17953;SDS011;9102;53.548;9.926;2022-10-18T03:17:24;86.82;;;30.75;;
17953;SDS011;9102;53.548;9.926;2022-10-18T03:19:51;90.13;;;30.80;;
17953;SDS011;9102;53.548;9.926;2022-10-18T03:22:18;89.95;;;31.67;;
17953;SDS011;9102;53.548;9.926;2022-10-18T03:24:45;84.80;;;30.08;;
17953;SDS011;9102;53.548;9.926;2022-10-18T03:27:13;109.00;;;32.40;;
17953;SDS011;9102;53.548;9.926;2022-10-18T03:29:39;97.50;;;32.08;;
17953;SDS011;9102;53.548;9.926;2022-10-18T03:32:06;84.38;;;31.10;;
17953;SDS011;9102;53.548;9.926;2022-10-18T03:34:33;73.45;;;28.13;;
17953;SDS011;9102;53.548;9.926;2022-10-18T03:37:00;78.57;;;28.48;;
17953;SDS011;9102;53.548;9.926;2022-10-18T03:39:26;77.25;;;29.83;;
17953;SDS011;9102;53.548;9.926;2022-10-18T03:41:53;137.23;;;36.55;;
17953;SDS011;9102;53.548;9.926;2022-10-18T03:44:21;118.70;;;34.75;;
17953;SDS011;9102;53.548;9.926;2022-10-18T03:46:48;130.85;;;35.33;;
17953;SDS011;9102;53.548;9.926;2022-10-18T03:49:15;92.10;;;32.05;;
17953;SDS011;9102;53.548;9.926;2022-10-18T03:51:41;93.80;;;32.22;;
17953;SDS011;9102;53.548;9.926;2022-10-18T03:54:08;120.55;;;35.65;;
17953;SDS011;9102;53.548;9.926;2022-10-18T03:56:35;112.82;;;35.90;;
17953;SDS011;9102;53.548;9.926;2022-10-18T03:59:02;106.88;;;34.45;;
17953;SDS011;9102;53.548;9.926;2022-10-18T04:01:30;106.97;;;32.75;;
17953;SDS011;9102;53.548;9.926;2022-10-18T04:03:57;150.88;;;39.10;;
17953;SDS011;9102;53.548;9.926;2022-10-18T04:06:23;88.80;;;32.95;;
17953;SDS011;9102;53.548;9.926;2022-10-18T04:08:50;92.82;;;32.33;;
17953;SDS011;9102;53.548;9.926;2022-10-18T04:11:17;140.55;;;38.65;;
17953;SDS011;9102;53.548;9.926;2022-10-18T04:13:44;110.45;;;34.10;;
17953;SDS011;9102;53.548;9.926;2022-10-18T04:16:10;109.35;;;34.35;;
17953;SDS011;9102;53.548;9.926;2022-10-18T04:18:39;92.13;;;32.25;;
17953;SDS011;9102;53.548;9.926;2022-10-18T04:21:05;119.28;;;35.95;;
17953;SDS011;9102;53.548;9.926;2022-10-18T04:23:32;114.70;;;40.92;;
17953;SDS011;9102;53.548;9.926;2022-10-18T04:25:59;127.47;;;37.22;;
17953;SDS011;9102;53.548;9.926;2022-10-18T04:28:26;95.93;;;31.42;;
17953;SDS011;9102;53.548;9.926;2022-10-18T04:30:53;98.55;;;32.75;;
17953;SDS011;9102;53.548;9.926;2022-10-18T04:33:19;103.75;;;33.25;;
17953;SDS011;9102;53.548;9.926;2022-10-18T04:35:50;87.68;;;31.20;;
17953;SDS011;9102;53.548;9.926;2022-10-18T04:38:17;141.65;;;38.38;;
17953;SDS011;9102;53.548;9.926;2022-10-18T04:40:44;105.47;;;33.60;;
17953;SDS011;9102;53.548;9.926;2022-10-18T04:43:11;83.85;;;31.90;;
17953;SDS011;9102;53.548;9.926;2022-10-18T04:45:38;120.43;;;35.28;;
17953;SDS011;9102;53.548;9.926;2022-10-18T04:48:05;111.65;;;35.20;;
17953;SDS011;9102;53.548;9.926;2022-10-18T04:50:32;112.13;;;34.30;;
17953;SDS011;9102;53.548;9.926;2022-10-18T04:53:00;93.65;;;32.60;;
17953;SDS011;9102;53.548;9.926;2022-10-18T04:55:27;122.63;;;36.25;;
17953;SDS011;9102;53.548;9.926;2022-10-18T04:57:54;191.93;;;41.50;;
17953;SDS011;9102;53.548;9.926;2022-10-18T05:00:21;135.65;;;37.55;;
17953;SDS011;9102;53.548;9.926;2022-10-18T05:02:47;112.13;;;36.08;;
17953;SDS011;9102;53.548;9.926;2022-10-18T05:05:14;96.88;;;33.80;;
17953;SDS011;9102;53.548;9.926;2022-10-18T05:07:41;151.23;;;36.88;;
17953;SDS011;9102;53.548;9.926;2022-10-18T05:10:09;100.80;;;33.95;;
17953;SDS011;9102;53.548;9.926;2022-10-18T05:12:36;136.13;;;34.72;;
17953;SDS011;9102;53.548;9.926;2022-10-18T05:15:03;139.52;;;37.28;;
17953;SDS011;9102;53.548;9.926;2022-10-18T05:17:30;111.75;;;34.20;;
17953;SDS011;9102;53.548;9.926;2022-10-18T05:19:57;101.38;;;32.65;;
17953;SDS011;9102;53.548;9.926;2022-10-18T05:22:24;124.63;;;37.80;;
17953;SDS011;9102;53.548;9.926;2022-10-18T05:24:51;117.88;;;36.72;;
17953;SDS011;9102;53.548;9.926;2022-10-18T05:27:19;124.57;;;36.13;;
17953;SDS011;9102;53.548;9.926;2022-10-18T05:29:46;122.82;;;36.60;;
17953;SDS011;9102;53.548;9.926;2022-10-18T05:32:12;120.55;;;36.22;;
17953;SDS011;9102;53.548;9.926;2022-10-18T05:34:39;125.32;;;36.40;;
17953;SDS011;9102;53.548;9.926;2022-10-18T05:37:06;111.25;;;34.92;;
17953;SDS011;9102;53.548;9.926;2022-10-18T05:39:33;104.35;;;34.47;;
17953;SDS011;9102;53.548;9.926;2022-10-18T05:41:59;134.68;;;37.55;;
17953;SDS011;9102;53.548;9.926;2022-10-18T05:44:28;111.00;;;34.55;;
17953;SDS011;9102;53.548;9.926;2022-10-18T05:46:54;122.20;;;36.72;;
17953;SDS011;9102;53.548;9.926;2022-10-18T05:49:21;97.32;;;34.33;;
17953;SDS011;9102;53.548;9.926;2022-10-18T05:51:48;123.90;;;35.33;;
17953;SDS011;9102;53.548;9.926;2022-10-18T05:54:15;101.90;;;32.47;;
17953;SDS011;9102;53.548;9.926;2022-10-18T05:56:42;101.40;;;31.92;;
17953;SDS011;9102;53.548;9.926;2022-10-18T05:59:09;119.30;;;33.83;;
17953;SDS011;9102;53.548;9.926;2022-10-18T06:01:38;106.05;;;33.05;;
17953;SDS011;9102;53.548;9.926;2022-10-18T06:04:06;109.50;;;32.85;;
17953;SDS011;9102;53.548;9.926;2022-10-18T06:06:34;97.63;;;30.08;;
17953;SDS011;9102;53.548;9.926;2022-10-18T06:09:01;111.80;;;30.92;;
17953;SDS011;9102;53.548;9.926;2022-10-18T06:11:29;88.90;;;28.02;;
17953;SDS011;9102;53.548;9.926;2022-10-18T06:13:56;105.80;;;29.73;;
17953;SDS011;9102;53.548;9.926;2022-10-18T06:16:23;86.18;;;28.40;;
17953;SDS011;9102;53.548;9.926;2022-10-18T06:18:53;84.68;;;28.45;;
17953;SDS011;9102;53.548;9.926;2022-10-18T06:21:21;79.40;;;27.48;;
17953;SDS011;9102;53.548;9.926;2022-10-18T06:23:49;83.65;;;27.30;;
17953;SDS011;9102;53.548;9.926;2022-10-18T06:26:16;79.93;;;27.02;;
17953;SDS011;9102;53.548;9.926;2022-10-18T06:28:43;65.20;;;23.88;;
17953;SDS011;9102;53.548;9.926;2022-10-18T06:31:11;73.18;;;26.73;;
17953;SDS011;9102;53.548;9.926;2022-10-18T06:33:38;85.50;;;27.67;;
17953;SDS011;9102;53.548;9.926;2022-10-18T06:36:08;73.07;;;27.23;;
17953;SDS011;9102;53.548;9.926;2022-10-18T06:38:36;79.45;;;24.83;;
17953;SDS011;9102;53.548;9.926;2022-10-18T06:41:04;73.72;;;25.88;;
17953;SDS011;9102;53.548;9.926;2022-10-18T06:43:31;82.07;;;26.65;;
17953;SDS011;9102;53.548;9.926;2022-10-18T06:45:59;66.65;;;25.35;;
17953;SDS011;9102;53.548;9.926;2022-10-18T06:48:27;67.75;;;25.25;;
17953;SDS011;9102;53.548;9.926;2022-10-18T06:50:54;67.00;;;25.25;;
17953;SDS011;9102;53.548;9.926;2022-10-18T06:53:23;56.45;;;22.50;;
17953;SDS011;9102;53.548;9.926;2022-10-18T06:55:51;61.40;;;24.15;;
17953;SDS011;9102;53.548;9.926;2022-10-18T06:58:18;54.90;;;22.30;;
17953;SDS011;9102;53.548;9.926;2022-10-18T07:00:45;61.40;;;23.08;;
17953;SDS011;9102;53.548;9.926;2022-10-18T07:03:12;60.95;;;22.17;;
17953;SDS011;9102;53.548;9.926;2022-10-18T07:05:38;55.83;;;22.35;;
17953;SDS011;9102;53.548;9.926;2022-10-18T07:08:05;63.10;;;21.98;;
17953;SDS011;9102;53.548;9.926;2022-10-18T07:10:33;57.40;;;21.92;;
17953;SDS011;9102;53.548;9.926;2022-10-18T07:13:00;51.38;;;20.63;;
17953;SDS011;9102;53.548;9.926;2022-10-18T07:15:27;50.83;;;21.35;;
17953;SDS011;9102;53.548;9.926;2022-10-18T07:17:54;46.47;;;20.77;;
17953;SDS011;9102;53.548;9.926;2022-10-18T07:20:21;43.28;;;20.48;;
17953;SDS011;9102;53.548;9.926;2022-10-18T07:22:47;46.95;;;21.30;;
17953;SDS011;9102;53.548;9.926;2022-10-18T07:25:14;43.78;;;20.27;;
17953;SDS011;9102;53.548;9.926;2022-10-18T07:27:43;46.85;;;19.50;;
17953;SDS011;9102;53.548;9.926;2022-10-18T07:30:09;45.40;;;19.30;;
17953;SDS011;9102;53.548;9.926;2022-10-18T07:32:36;43.15;;;19.67;;
17953;SDS011;9102;53.548;9.926;2022-10-18T07:35:03;39.75;;;18.27;;
17953;SDS011;9102;53.548;9.926;2022-10-18T07:37:30;44.03;;;19.23;;
17953;SDS011;9102;53.548;9.926;2022-10-18T07:39:57;39.28;;;18.88;;
17953;SDS011;9102;53.548;9.926;2022-10-18T07:42:24;38.28;;;17.80;;
17953;SDS011;9102;53.548;9.926;2022-10-18T07:44:52;46.42;;;18.55;;
17953;SDS011;9102;53.548;9.926;2022-10-18T07:47:19;36.97;;;18.52;;
17953;SDS011;9102;53.548;9.926;2022-10-18T07:49:46;32.95;;;16.73;;
17953;SDS011;9102;53.548;9.926;2022-10-18T07:52:12;36.25;;;17.73;;
17953;SDS011;9102;53.548;9.926;2022-10-18T07:54:42;30.42;;;16.52;;
17953;SDS011;9102;53.548;9.926;2022-10-18T07:57:09;35.10;;;16.27;;
17953;SDS011;9102;53.548;9.926;2022-10-18T07:59:36;36.60;;;16.70;;
17953;SDS011;9102;53.548;9.926;2022-10-18T08:02:04;34.45;;;15.57;;
17953;SDS011;9102;53.548;9.926;2022-10-18T08:04:32;28.35;;;14.82;;
17953;SDS011;9102;53.548;9.926;2022-10-18T08:06:59;31.23;;;15.05;;
17953;SDS011;9102;53.548;9.926;2022-10-18T08:09:26;28.60;;;15.25;;
17953;SDS011;9102;53.548;9.926;2022-10-18T08:11:52;31.98;;;15.45;;
17953;SDS011;9102;53.548;9.926;2022-10-18T08:14:20;30.48;;;15.32;;
17953;SDS011;9102;53.548;9.926;2022-10-18T08:16:47;26.08;;;13.88;;
17953;SDS011;9102;53.548;9.926;2022-10-18T08:19:15;29.50;;;14.45;;
17953;SDS011;9102;53.548;9.926;2022-10-18T08:21:42;29.75;;;14.25;;
17953;SDS011;9102;53.548;9.926;2022-10-18T08:24:08;30.58;;;13.93;;
17953;SDS011;9102;53.548;9.926;2022-10-18T08:26:35;27.73;;;14.07;;
17953;SDS011;9102;53.548;9.926;2022-10-18T08:29:02;26.15;;;13.77;;
17953;SDS011;9102;53.548;9.926;2022-10-18T08:31:29;28.80;;;13.32;;
17953;SDS011;9102;53.548;9.926;2022-10-18T08:33:56;28.77;;;13.18;;
17953;SDS011;9102;53.548;9.926;2022-10-18T08:36:25;28.00;;;13.18;;
17953;SDS011;9102;53.548;9.926;2022-10-18T08:38:52;24.02;;;13.27;;
17953;SDS011;9102;53.548;9.926;2022-10-18T08:41:22;24.83;;;12.93;;
17953;SDS011;9102;53.548;9.926;2022-10-18T08:44:05;22.80;;;12.40;;
17953;SDS011;9102;53.548;9.926;2022-10-18T08:46:39;20.67;;;11.32;;
17953;SDS011;9102;53.548;9.926;2022-10-18T08:49:09;28.30;;;13.20;;
17953;SDS011;9102;53.548;9.926;2022-10-18T08:51:45;23.20;;;13.00;;
17953;SDS011;9102;53.548;9.926;2022-10-18T08:54:17;29.05;;;12.43;;
17953;SDS011;9102;53.548;9.926;2022-10-18T08:56:53;25.30;;;12.38;;
17953;SDS011;9102;53.548;9.926;2022-10-18T08:59:23;27.08;;;12.27;;
17953;SDS011;9102;53.548;9.926;2022-10-18T09:01:53;23.80;;;12.57;;
17953;SDS011;9102;53.548;9.926;2022-10-18T09:04:30;24.65;;;12.88;;
17953;SDS011;9102;53.548;9.926;2022-10-18T09:07:16;25.35;;;11.85;;
17953;SDS011;9102;53.548;9.926;2022-10-18T09:09:53;25.35;;;11.90;;
17953;SDS011;9102;53.548;9.926;2022-10-18T09:15:32;22.35;;;12.57;;
17953;SDS011;9102;53.548;9.926;2022-10-18T09:18:09;23.95;;;12.48;;
17953;SDS011;9102;53.548;9.926;2022-10-18T09:20:46;27.17;;;12.43;;
17953;SDS011;9102;53.548;9.926;2022-10-18T09:23:19;27.13;;;12.40;;
17953;SDS011;9102;53.548;9.926;2022-10-18T09:25:48;26.13;;;13.43;;
17953;SDS011;9102;53.548;9.926;2022-10-18T09:28:20;22.67;;;12.00;;
17953;SDS011;9102;53.548;9.926;2022-10-18T09:30:58;22.65;;;12.10;;
17953;SDS011;9102;53.548;9.926;2022-10-18T09:33:33;22.77;;;11.63;;
17953;SDS011;9102;53.548;9.926;2022-10-18T09:36:08;19.88;;;11.23;;
17953;SDS011;9102;53.548;9.926;2022-10-18T09:38:41;26.13;;;11.27;;
17953;SDS011;9102;53.548;9.926;2022-10-18T09:41:12;21.08;;;10.82;;
17953;SDS011;9102;53.548;9.926;2022-10-18T09:43:49;24.08;;;11.27;;
17953;SDS011;9102;53.548;9.926;2022-10-18T09:46:22;21.52;;;10.75;;
17953;SDS011;9102;53.548;9.926;2022-10-18T09:48:53;21.95;;;11.43;;
17953;SDS011;9102;53.548;9.926;2022-10-18T09:51:24;24.05;;;11.90;;
17953;SDS011;9102;53.548;9.926;2022-10-18T09:53:57;21.75;;;12.43;;
17953;SDS011;9102;53.548;9.926;2022-10-18T09:56:35;17.85;;;11.20;;
17953;SDS011;9102;53.548;9.926;2022-10-18T09:59:06;21.88;;;11.98;;
17953;SDS011;9102;53.548;9.926;2022-10-18T10:01:46;22.67;;;12.50;;
17953;SDS011;9102;53.548;9.926;2022-10-18T10:04:13;26.00;;;11.52;;
17953;SDS011;9102;53.548;9.926;2022-10-18T10:06:40;17.92;;;10.05;;
17953;SDS011;9102;53.548;9.926;2022-10-18T10:09:16;21.88;;;10.75;;
17953;SDS011;9102;53.548;9.926;2022-10-18T10:11:50;18.38;;;10.52;;
17953;SDS011;9102;53.548;9.926;2022-10-18T10:14:20;22.48;;;11.15;;
17953;SDS011;9102;53.548;9.926;2022-10-18T10:16:50;21.05;;;10.65;;
17953;SDS011;9102;53.548;9.926;2022-10-18T10:19:19;20.33;;;11.07;;
17953;SDS011;9102;53.548;9.926;2022-10-18T10:21:49;22.40;;;11.50;;
17953;SDS011;9102;53.548;9.926;2022-10-18T10:24:22;23.52;;;10.77;;
17953;SDS011;9102;53.548;9.926;2022-10-18T10:26:57;26.17;;;11.80;;
17953;SDS011;9102;53.548;9.926;2022-10-18T10:32:27;23.98;;;12.15;;
17953;SDS011;9102;53.548;9.926;2022-10-18T10:34:56;26.33;;;11.82;;
17953;SDS011;9102;53.548;9.926;2022-10-18T10:37:28;25.63;;;11.88;;
17953;SDS011;9102;53.548;9.926;2022-10-18T10:40:06;24.63;;;11.52;;
17953;SDS011;9102;53.548;9.926;2022-10-18T10:42:47;24.17;;;12.00;;
17953;SDS011;9102;53.548;9.926;2022-10-18T10:45:28;30.30;;;11.30;;
17953;SDS011;9102;53.548;9.926;2022-10-18T10:48:01;22.33;;;10.70;;
17953;SDS011;9102;53.548;9.926;2022-10-18T10:50:31;25.00;;;10.73;;
17953;SDS011;9102;53.548;9.926;2022-10-18T10:53:19;27.40;;;10.05;;
17953;SDS011;9102;53.548;9.926;2022-10-18T10:55:55;24.40;;;10.18;;
17953;SDS011;9102;53.548;9.926;2022-10-18T10:58:24;17.52;;;9.30;;
17953;SDS011;9102;53.548;9.926;2022-10-18T11:00:54;21.02;;;8.25;;
17953;SDS011;9102;53.548;9.926;2022-10-18T11:03:22;19.80;;;8.65;;
17953;SDS011;9102;53.548;9.926;2022-10-18T11:05:50;19.98;;;8.13;;
17953;SDS011;9102;53.548;9.926;2022-10-18T11:08:20;22.13;;;9.27;;
17953;SDS011;9102;53.548;9.926;2022-10-18T11:13:45;14.25;;;6.60;;
17953;SDS011;9102;53.548;9.926;2022-10-18T11:16:15;18.77;;;7.18;;
17953;SDS011;9102;53.548;9.926;2022-10-18T11:18:48;21.80;;;6.13;;
17953;SDS011;9102;53.548;9.926;2022-10-18T11:21:19;11.25;;;5.07;;
17953;SDS011;9102;53.548;9.926;2022-10-18T11:23:49;16.63;;;5.13;;
17953;SDS011;9102;53.548;9.926;2022-10-18T11:26:23;18.67;;;5.20;;
17953;SDS011;9102;53.548;9.926;2022-10-18T11:29:14;21.13;;;5.30;;
17953;SDS011;9102;53.548;9.926;2022-10-18T11:31:53;13.60;;;4.20;;
17953;SDS011;9102;53.548;9.926;2022-10-18T11:34:33;12.65;;;4.55;;
17953;SDS011;9102;53.548;9.926;2022-10-18T11:37:11;13.82;;;4.40;;
17953;SDS011;9102;53.548;9.926;2022-10-18T11:39:53;13.38;;;4.85;;
17953;SDS011;9102;53.548;9.926;2022-10-18T11:42:28;14.13;;;4.43;;
17953;SDS011;9102;53.548;9.926;2022-10-18T11:45:05;15.43;;;5.20;;
17953;SDS011;9102;53.548;9.926;2022-10-18T11:47:46;13.20;;;5.05;;
17953;SDS011;9102;53.548;9.926;2022-10-18T11:50:21;16.15;;;5.25;;
17953;SDS011;9102;53.548;9.926;2022-10-18T11:52:58;12.60;;;5.32;;
17953;SDS011;9102;53.548;9.926;2022-10-18T11:55:36;12.60;;;4.78;;
17953;SDS011;9102;53.548;9.926;2022-10-18T11:58:21;18.35;;;5.72;;
17953;SDS011;9102;53.548;9.926;2022-10-18T12:01:02;15.43;;;4.90;;
17953;SDS011;9102;53.548;9.926;2022-10-18T12:03:40;17.40;;;5.72;;
17953;SDS011;9102;53.548;9.926;2022-10-18T12:06:17;17.98;;;5.95;;
17953;SDS011;9102;53.548;9.926;2022-10-18T12:08:46;14.77;;;4.82;;
17953;SDS011;9102;53.548;9.926;2022-10-18T12:11:17;19.10;;;5.38;;
17953;SDS011;9102;53.548;9.926;2022-10-18T12:13:50;13.82;;;5.00;;
17953;SDS011;9102;53.548;9.926;2022-10-18T12:16:21;19.77;;;5.57;;
17953;SDS011;9102;53.548;9.926;2022-10-18T12:18:51;17.73;;;5.85;;
17953;SDS011;9102;53.548;9.926;2022-10-18T12:21:21;17.17;;;5.20;;
17953;SDS011;9102;53.548;9.926;2022-10-18T12:23:50;12.70;;;4.47;;
17953;SDS011;9102;53.548;9.926;2022-10-18T12:26:20;15.35;;;5.45;;
17953;SDS011;9102;53.548;9.926;2022-10-18T12:28:52;14.07;;;4.30;;
17953;SDS011;9102;53.548;9.926;2022-10-18T12:31:27;12.93;;;3.70;;
17953;SDS011;9102;53.548;9.926;2022-10-18T12:33:59;13.52;;;3.28;;
17953;SDS011;9102;53.548;9.926;2022-10-18T12:39:21;14.15;;;2.40;;
17953;SDS011;9102;53.548;9.926;2022-10-18T12:41:51;9.68;;;2.10;;
17953;SDS011;9102;53.548;9.926;2022-10-18T12:44:21;8.80;;;1.90;;
17953;SDS011;9102;53.548;9.926;2022-10-18T12:46:54;9.32;;;2.20;;
17953;SDS011;9102;53.548;9.926;2022-10-18T12:49:23;8.38;;;2.15;;
17953;SDS011;9102;53.548;9.926;2022-10-18T12:51:53;10.50;;;2.03;;
17953;SDS011;9102;53.548;9.926;2022-10-18T12:54:23;14.25;;;2.17;;
17953;SDS011;9102;53.548;9.926;2022-10-18T12:56:53;14.82;;;2.28;;
17953;SDS011;9102;53.548;9.926;2022-10-18T13:02:25;12.18;;;2.30;;
17953;SDS011;9102;53.548;9.926;2022-10-18T13:04:54;9.50;;;1.70;;
17953;SDS011;9102;53.548;9.926;2022-10-18T13:07:32;11.95;;;2.05;;
17953;SDS011;9102;53.548;9.926;2022-10-18T13:13:07;9.30;;;1.80;;
17953;SDS011;9102;53.548;9.926;2022-10-18T13:15:59;10.73;;;1.98;;
17953;SDS011;9102;53.548;9.926;2022-10-18T13:18:32;10.10;;;1.70;;
17953;SDS011;9102;53.548;9.926;2022-10-18T13:21:12;13.27;;;1.92;;
17953;SDS011;9102;53.548;9.926;2022-10-18T13:23:46;9.85;;;1.77;;
17953;SDS011;9102;53.548;9.926;2022-10-18T13:26:36;10.55;;;1.92;;
17953;SDS011;9102;53.548;9.926;2022-10-18T13:29:20;11.15;;;1.90;;
17953;SDS011;9102;53.548;9.926;2022-10-18T13:31:57;10.63;;;1.90;;
17953;SDS011;9102;53.548;9.926;2022-10-18T13:34:29;10.43;;;1.95;;
17953;SDS011;9102;53.548;9.926;2022-10-18T13:36:59;10.15;;;1.77;;
17953;SDS011;9102;53.548;9.926;2022-10-18T13:39:28;12.25;;;2.33;;
17953;SDS011;9102;53.548;9.926;2022-10-18T13:44:52;11.60;;;1.92;;
17953;SDS011;9102;53.548;9.926;2022-10-18T13:47:33;9.27;;;1.42;;
17953;SDS011;9102;53.548;9.926;2022-10-18T13:50:09;8.48;;;1.70;;
17953;SDS011;9102;53.548;9.926;2022-10-18T13:55:53;13.45;;;2.10;;
17953;SDS011;9102;53.548;9.926;2022-10-18T13:58:29;10.43;;;1.80;;
17953;SDS011;9102;53.548;9.926;2022-10-18T14:01:06;12.05;;;1.83;;
17953;SDS011;9102;53.548;9.926;2022-10-18T14:03:52;10.07;;;1.85;;
17953;SDS011;9102;53.548;9.926;2022-10-18T14:06:46;10.30;;;2.55;;
17953;SDS011;9102;53.548;9.926;2022-10-18T14:09:15;12.30;;;1.73;;
17953;SDS011;9102;53.548;9.926;2022-10-18T14:11:45;11.95;;;2.45;;
17953;SDS011;9102;53.548;9.926;2022-10-18T14:14:15;13.02;;;2.03;;
17953;SDS011;9102;53.548;9.926;2022-10-18T14:16:49;9.80;;;1.90;;
17953;SDS011;9102;53.548;9.926;2022-10-18T14:19:24;13.02;;;1.75;;
17953;SDS011;9102;53.548;9.926;2022-10-18T14:21:56;9.30;;;1.60;;
17953;SDS011;9102;53.548;9.926;2022-10-18T14:24:35;10.50;;;1.70;;
17953;SDS011;9102;53.548;9.926;2022-10-18T14:27:09;11.55;;;1.60;;
17953;SDS011;9102;53.548;9.926;2022-10-18T14:29:42;7.38;;;1.23;;
17953;SDS011;9102;53.548;9.926;2022-10-18T14:32:21;10.40;;;2.05;;
17953;SDS011;9102;53.548;9.926;2022-10-18T14:34:52;7.60;;;1.42;;
17953;SDS011;9102;53.548;9.926;2022-10-18T14:37:20;9.68;;;1.75;;
17953;SDS011;9102;53.548;9.926;2022-10-18T14:39:52;14.23;;;1.60;;
17953;SDS011;9102;53.548;9.926;2022-10-18T14:42:20;15.50;;;2.20;;
17953;SDS011;9102;53.548;9.926;2022-10-18T14:44:48;6.70;;;1.60;;
17953;SDS011;9102;53.548;9.926;2022-10-18T14:47:19;8.45;;;1.45;;
17953;SDS011;9102;53.548;9.926;2022-10-18T14:49:47;11.48;;;2.00;;
17953;SDS011;9102;53.548;9.926;2022-10-18T14:52:16;10.13;;;1.70;;
17953;SDS011;9102;53.548;9.926;2022-10-18T14:54:45;10.02;;;2.63;;
17953;SDS011;9102;53.548;9.926;2022-10-18T14:57:15;11.15;;;2.20;;
17953;SDS011;9102;53.548;9.926;2022-10-18T14:59:44;15.35;;;2.00;;
17953;SDS011;9102;53.548;9.926;2022-10-18T15:02:16;10.38;;;1.80;;
17953;SDS011;9102;53.548;9.926;2022-10-18T15:04:53;11.80;;;1.63;;
17953;SDS011;9102;53.548;9.926;2022-10-18T15:07:23;9.93;;;1.40;;
17953;SDS011;9102;53.548;9.926;2022-10-18T15:09:53;9.90;;;1.67;;
17953;SDS011;9102;53.548;9.926;2022-10-18T15:12:21;10.40;;;2.40;;
17953;SDS011;9102;53.548;9.926;2022-10-18T15:14:48;13.77;;;1.77;;
17953;SDS011;9102;53.548;9.926;2022-10-18T15:17:18;13.82;;;1.88;;
17953;SDS011;9102;53.548;9.926;2022-10-18T15:19:55;10.10;;;1.52;;
17953;SDS011;9102;53.548;9.926;2022-10-18T15:22:25;10.38;;;1.45;;
17953;SDS011;9102;53.548;9.926;2022-10-18T15:25:07;11.02;;;1.60;;